Time;durP1;ratioP1;P1;durP2;ratioP2;P2;SDS_P1;SDS_P2;PMS_P1;PMS_P2;Temp;Humidity;BMP_temperature;BMP_pressure;BME280_temperature;BME280_humidity;BME280_pressure;Samples;Min_cycle;Max_cycle;Signal;HPM_P1;HPM_P2
2022/04/12 00:01:19;;;;;;;5.20;2.10;;;15.50;79.60;;;;;;5095698;28;20048;-64
2022/04/12 00:03:45;;;;;;;5.53;2.42;;;15.40;82.20;;;;;;5094299;28;20036;-63
2022/04/12 00:06:10;;;;;;;6.50;2.30;;;15.40;82.30;;;;;;5094094;28;20052;-63
2022/04/12 00:08:36;;;;;;;4.60;2.10;;;15.30;79.40;;;;;;5091135;28;20027;-68
2022/04/12 00:11:02;;;;;;;5.28;2.30;;;15.50;82.20;;;;;;5075406;28;20094;-68
2022/04/12 00:13:28;;;;;;;6.22;2.55;;;15.30;79.40;;;;;;5081446;28;20120;-66
2022/04/12 00:15:54;;;;;;;8.23;2.75;;;15.00;81.90;;;;;;5094187;28;20085;-64
2022/04/12 00:21:03;;;;;;;4.60;2.45;;;15.50;82.20;;;;;;5077157;28;20044;-64
2022/04/12 00:23:29;;;;;;;6.22;2.50;;;15.20;79.30;;;;;;5073870;28;20106;-64
2022/04/12 00:25:56;;;;;;;6.45;2.33;;;;;;;;;;5075155;28;20494;-63
2022/04/12 00:28:21;;;;;;;5.95;2.90;;;15.50;82.20;;;;;;5075176;28;20078;-64
2022/04/12 00:30:47;;;;;;;6.82;2.58;;;15.40;79.40;;;;;;5075820;28;20040;-63
2022/04/12 00:33:13;;;;;;;6.10;2.40;;;15.20;82.00;;;;;;5094143;28;20071;-63
2022/04/12 00:35:38;;;;;;;6.68;2.40;;;15.20;79.20;;;;;;5089802;28;20048;-64
2022/04/12 00:38:13;;;;;;;5.18;2.78;;;15.30;82.00;;;;;;5077204;28;20076;-68
2022/04/12 00:40:39;;;;;;;6.90;2.40;;;15.20;82.00;;;;;;5086562;28;20048;-65
2022/04/12 00:43:05;;;;;;;7.40;2.25;;;15.30;82.00;;;;;;5081725;28;20044;-67
2022/04/12 00:45:31;;;;;;;5.38;2.40;;;15.30;81.90;;;;;;5073289;28;20044;-65
2022/04/12 00:47:57;;;;;;;7.43;2.60;;;15.10;81.80;;;;;;5072995;28;20131;-65
2022/04/12 00:50:22;;;;;;;4.65;2.60;;;15.10;79.60;;;;;;5073072;28;20102;-65
2022/04/12 00:52:50;;;;;;;5.40;2.55;;;15.10;82.00;;;;;;5074537;28;20048;-65
2022/04/12 00:55:16;;;;;;;6.05;2.90;;;;;;;;;;5074199;28;20036;-66
2022/04/12 00:57:42;;;;;;;6.00;2.65;;;15.10;81.80;;;;;;5092304;28;20047;-65
2022/04/12 01:00:09;;;;;;;7.43;2.92;;;15.30;81.90;;;;;;5081115;28;20044;-64
2022/04/12 01:02:35;;;;;;;6.38;2.53;;;15.40;81.90;;;;;;5073499;28;20114;-66
2022/04/12 01:05:04;;;;;;;5.03;2.58;;;15.10;81.80;;;;;;5056303;28;20477;-64
2022/04/12 01:07:33;;;;;;;7.53;2.70;;;15.20;79.20;;;;;;5088805;28;20093;-66
2022/04/12 01:09:58;;;;;;;6.57;2.85;;;15.20;81.90;;;;;;5091875;28;20082;-68
2022/04/12 01:12:27;;;;;;;6.32;2.70;;;15.30;79.30;;;;;;5092414;28;20138;-64
2022/04/12 01:14:52;;;;;;;4.70;2.50;;;15.20;81.70;;;;;;5092112;28;20385;-65
2022/04/12 01:17:18;;;;;;;4.90;2.58;;;15.10;79.10;;;;;;5076176;28;20056;-66
2022/04/12 01:19:44;;;;;;;6.80;3.13;;;15.20;79.20;;;;;;5085464;28;20055;-64
2022/04/12 01:22:16;;;;;;;6.20;2.58;;;15.10;81.80;;;;;;5094251;28;20048;-65
2022/04/12 01:24:42;;;;;;;5.00;2.50;;;15.10;81.80;;;;;;5092625;28;20055;-65
2022/04/12 01:27:08;;;;;;;9.25;2.88;;;14.90;81.50;;;;;;5089944;28;20041;-66
2022/04/12 01:29:35;;;;;;;6.68;3.13;;;;;;;;;;5092521;28;20048;-67
2022/04/12 01:32:07;;;;;;;8.15;3.03;;;14.80;81.50;;;;;;5093100;28;20048;-64
2022/04/12 01:34:36;;;;;;;5.80;2.88;;;15.10;79.90;;;;;;5076066;28;20043;-66
2022/04/12 01:37:07;;;;;;;5.68;2.80;;;15.10;77.40;;;;;;5072644;28;20055;-66
2022/04/12 01:39:33;;;;;;;5.40;2.97;;;15.10;81.90;;;;;;5088472;28;20055;-67
2022/04/12 01:41:59;;;;;;;7.00;3.08;;;15.10;81.70;;;;;;5077411;28;20044;-66
2022/04/12 01:44:25;;;;;;;7.28;3.00;;;14.60;81.40;;;;;;5073387;28;20044;-67
2022/04/12 01:46:50;;;;;;;6.30;2.88;;;15.00;79.00;;;;;;5073118;28;20040;-65
2022/04/12 01:49:16;;;;;;;6.15;3.13;;;15.10;81.60;;;;;;5074083;28;20154;-64
2022/04/12 01:51:42;;;;;;;6.70;2.85;;;;;;;;;;5091250;28;20036;-64
2022/04/12 01:54:08;;;;;;;5.68;2.97;;;15.00;81.70;;;;;;5093789;28;20048;-64
2022/04/12 01:56:34;;;;;;;5.03;2.90;;;;;;;;;;5093501;28;20454;-64
2022/04/12 01:59:02;;;;;;;7.45;3.13;;;15.00;81.70;;;;;;5089775;28;20040;-65
2022/04/12 02:01:29;;;;;;;5.25;2.80;;;15.00;81.60;;;;;;5081202;28;20489;-66
2022/04/12 02:03:55;;;;;;;6.65;3.10;;;15.00;81.70;;;;;;5092411;28;20416;-66
2022/04/12 02:06:21;;;;;;;7.63;3.53;;;15.00;79.00;;;;;;5084482;28;20053;-65
2022/04/12 02:08:47;;;;;;;5.50;2.97;;;14.90;81.60;;;;;;5090147;28;20051;-68
2022/04/12 02:11:12;;;;;;;7.50;3.03;;;15.10;79.10;;;;;;5074293;28;20056;-68
2022/04/12 02:13:39;;;;;;;6.82;3.47;;;;;;;;;;5073477;28;20048;-64
2022/04/12 02:16:05;;;;;;;5.78;3.20;;;14.90;81.70;;;;;;5074865;28;20481;-65
2022/04/12 02:18:30;;;;;;;5.70;2.72;;;15.10;79.10;;;;;;5088175;28;20083;-67
2022/04/12 02:20:56;;;;;;;6.35;3.17;;;14.90;81.70;;;;;;5081535;28;20060;-65
2022/04/12 02:23:22;;;;;;;7.22;3.30;;;14.80;78.90;;;;;;5073663;28;20055;-67
2022/04/12 02:25:48;;;;;;;7.78;3.70;;;15.00;81.80;;;;;;5094245;28;20048;-65
2022/04/12 02:28:15;;;;;;;5.30;2.85;;;14.90;81.50;;;;;;5092048;28;20040;-65
2022/04/12 02:30:41;;;;;;;6.13;3.10;;;;;;;;;;5084908;28;20486;-65
2022/04/12 02:33:07;;;;;;;6.93;3.17;;;14.90;81.40;;;;;;5080501;28;20044;-65
2022/04/12 02:35:32;;;;;;;6.50;3.15;;;14.90;78.70;;;;;;5097183;28;20553;-68
2022/04/12 02:37:58;;;;;;;7.38;3.15;;;15.10;81.50;;;;;;5095836;28;20044;-68
2022/04/12 02:40:24;;;;;;;5.55;3.22;;;14.90;81.40;;;;;;5097366;28;20048;-67
2022/04/12 02:42:50;;;;;;;7.55;3.75;;;14.90;81.30;;;;;;5078827;28;20098;-64
2022/04/12 02:45:15;;;;;;;6.93;3.63;;;15.00;81.50;;;;;;5058746;28;20055;-64
2022/04/12 02:47:41;;;;;;;7.78;3.40;;;14.90;81.50;;;;;;5078414;28;20432;-65
2022/04/12 02:50:07;;;;;;;7.25;3.35;;;14.70;81.60;;;;;;5086722;28;20072;-65
2022/04/12 02:52:33;;;;;;;7.18;3.85;;;15.00;81.50;;;;;;5076035;28;20080;-64
2022/04/12 02:54:58;;;;;;;6.38;3.78;;;14.70;81.40;;;;;;5075246;28;20562;-65
2022/04/12 02:57:24;;;;;;;7.65;3.50;;;15.00;81.50;;;;;;5044215;28;20054;-66
2022/04/12 02:59:50;;;;;;;10.63;4.43;;;14.80;81.40;;;;;;5077480;28;20168;-66
2022/04/12 03:02:16;;;;;;;5.85;3.50;;;;;;;;;;5094643;28;20040;-64
2022/04/12 03:04:42;;;;;;;6.28;3.65;;;14.80;81.40;;;;;;5077026;28;20053;-67
2022/04/12 03:07:08;;;;;;;8.18;4.38;;;14.90;82.10;;;;;;5076589;28;20056;-68
2022/04/12 03:09:35;;;;;;;7.60;3.88;;;15.00;81.50;;;;;;5076304;28;20410;-68
2022/04/12 03:12:00;;;;;;;6.13;3.33;;;14.70;81.50;;;;;;5076401;28;20136;-68
2022/04/12 03:14:26;;;;;;;8.02;4.38;;;14.60;78.60;;;;;;5087074;28;20487;-66
2022/04/12 03:16:52;;;;;;;7.45;3.53;;;14.70;81.30;;;;;;5077283;28;20418;-66
2022/04/12 03:19:18;;;;;;;7.82;4.00;;;14.90;78.70;;;;;;5083521;28;20055;-65
2022/04/12 03:21:44;;;;;;;8.30;4.07;;;14.80;81.20;;;;;;5095038;28;20500;-66
2022/04/12 03:24:09;;;;;;;7.18;4.38;;;15.20;81.40;;;;;;5090045;28;20036;-67
2022/04/12 03:26:36;;;;;;;6.00;3.67;;;15.20;78.70;;;;;;5089264;28;20173;-64
2022/04/12 03:29:02;;;;;;;6.78;4.10;;;15.20;81.20;;;;;;5096176;28;20480;-66
2022/04/12 03:31:27;;;;;;;7.50;3.67;;;15.30;81.40;;;;;;5091733;28;20048;-64
2022/04/12 03:33:53;;;;;;;6.95;4.10;;;15.00;81.10;;;;;;5076374;28;20044;-66
2022/04/12 03:36:19;;;;;;;6.95;3.92;;;15.20;81.30;;;;;;5088045;28;20048;-67
2022/04/12 03:38:51;;;;;;;7.50;3.78;;;15.20;78.60;;;;;;5096284;28;20101;-68
2022/04/12 03:41:23;;;;;;;6.90;4.07;;;14.60;80.90;;;;;;5095506;28;20059;-67
2022/04/12 03:43:52;;;;;;;8.13;4.03;;;15.10;81.30;;;;;;5095069;28;20076;-66
2022/04/12 03:46:18;;;;;;;8.32;4.20;;;15.00;80.00;;;;;;5080344;28;20075;-64
2022/04/12 03:48:44;;;;;;;8.13;4.03;;;14.80;81.10;;;;;;5075554;28;20083;-64
2022/04/12 03:51:10;;;;;;;8.60;3.80;;;;;;;;;;5060893;28;20048;-64
2022/04/12 03:53:39;;;;;;;7.13;3.85;;;14.90;81.20;;;;;;5094462;28;20080;-64
2022/04/12 03:56:07;;;;;;;7.68;3.72;;;15.10;81.60;;;;;;5083973;28;20051;-64
2022/04/12 03:58:36;;;;;;;6.50;3.92;;;14.80;81.00;;;;;;5057759;28;20045;-64
2022/04/12 04:01:03;;;;;;;7.65;4.10;;;14.80;81.30;;;;;;5085422;28;20508;-65
2022/04/12 04:03:29;;;;;;;7.40;4.00;;;14.90;81.10;;;;;;5060387;28;20489;-64
2022/04/12 04:05:55;;;;;;;7.55;4.05;;;14.80;81.00;;;;;;5091160;28;20104;-68
2022/04/12 04:08:21;;;;;;;7.72;4.70;;;14.80;78.40;;;;;;5075455;28;20079;-69
2022/04/12 04:10:47;;;;;;;8.35;4.07;;;15.00;81.10;;;;;;5072671;28;20090;-69
2022/04/12 04:13:14;;;;;;;8.13;4.03;;;14.90;78.50;;;;;;5082234;28;20060;-66
2022/04/12 04:15:40;;;;;;;7.15;4.13;;;14.80;81.10;;;;;;5074066;28;20444;-64
2022/04/12 04:18:09;;;;;;;7.28;3.97;;;14.80;76.70;;;;;;5041409;28;20433;-64
2022/04/12 04:20:35;;;;;;;7.60;3.95;;;;;;;;;;5058335;28;20469;-64
2022/04/12 04:23:02;;;;;;;6.80;4.20;;;;;;;;;;5092700;28;20047;-64
2022/04/12 04:25:28;;;;;;;8.32;4.28;;;14.70;81.10;;;;;;5093148;28;20073;-64
2022/04/12 04:27:54;;;;;;;7.25;4.63;;;14.80;81.20;;;;;;5089800;28;20025;-64
2022/04/12 04:30:20;;;;;;;7.32;4.32;;;14.90;78.70;;;;;;5074497;28;20040;-64
2022/04/12 04:32:46;;;;;;;8.05;4.60;;;;;;;;;;5074093;28;20047;-64
2022/04/12 04:35:12;;;;;;;7.13;4.20;;;;;;;;;;5074849;28;20036;-66
2022/04/12 04:37:46;;;;;;;8.02;4.47;;;14.90;81.40;;;;;;5089259;28;20048;-67
2022/04/12 04:40:20;;;;;;;;;;;14.70;78.80;;;;;;5080064;28;20093;-66
2022/04/12 04:42:46;;;;;;;7.13;4.05;;;15.00;81.40;;;;;;5094309;28;20327;-67
2022/04/12 04:45:12;;;;;;;7.15;4.22;;;14.70;81.40;;;;;;5086659;28;20036;-68
2022/04/12 04:47:55;;;;;;;6.63;4.20;;;;;;;;;;5074020;28;20048;-65
2022/04/12 04:50:21;;;;;;;7.13;4.30;;;14.80;77.80;;;;;;5075097;28;20051;-65
2022/04/12 04:52:47;;;;;;;6.82;4.65;;;15.00;81.40;;;;;;5073007;28;20091;-64
2022/04/12 04:55:13;;;;;;;7.53;3.90;;;14.80;81.30;;;;;;5072849;28;20090;-64
2022/04/12 04:57:40;;;;;;;7.22;4.70;;;14.70;81.50;;;;;;5075016;28;20045;-64
2022/04/12 05:00:16;;;;;;;7.53;4.45;;;14.70;78.80;;;;;;5075305;28;20043;-64
2022/04/12 05:02:49;;;;;;;8.32;4.85;;;14.70;81.60;;;;;;5039636;28;20041;-65
2022/04/12 05:05:15;;;;;;;8.77;4.22;;;14.50;78.80;;;;;;5054099;28;20056;-64
2022/04/12 05:07:43;;;;;;;7.25;4.43;;;14.70;81.40;;;;;;5056821;28;20036;-68
2022/04/12 05:10:11;;;;;;;7.90;4.32;;;14.40;78.60;;;;;;5058246;28;20056;-69
2022/04/12 05:12:37;;;;;;;7.63;4.40;;;14.70;81.30;;;;;;5052548;28;20052;-66
2022/04/12 05:15:03;;;;;;;7.60;4.47;;;14.60;78.60;;;;;;5082138;28;20539;-65
2022/04/12 05:17:29;;;;;;;6.75;4.53;;;14.80;81.30;;;;;;5072563;28;20048;-67
2022/04/12 05:19:58;;;;;;;7.90;4.95;;;14.50;81.10;;;;;;5073148;28;20044;-66
2022/04/12 05:22:24;;;;;;;10.50;4.65;;;14.50;78.50;;;;;;5073757;28;20127;-68
2022/04/12 05:24:49;;;;;;;7.78;4.50;;;14.80;81.40;;;;;;5073719;28;20076;-67
2022/04/12 05:27:15;;;;;;;8.82;5.03;;;14.90;78.70;;;;;;5091311;28;20485;-63
2022/04/12 05:29:42;;;;;;;7.85;4.95;;;14.90;81.30;;;;;;5075584;28;20097;-64
2022/04/12 05:32:09;;;;;;;9.43;4.82;;;14.70;81.20;;;;;;5076496;28;20134;-64
2022/04/12 05:34:41;;;;;;;7.75;4.47;;;14.80;78.60;;;;;;5073915;28;20045;-66
2022/04/12 05:37:07;;;;;;;8.77;5.00;;;15.00;81.20;;;;;;5078830;28;20078;-65
2022/04/12 05:39:32;;;;;;;8.88;5.00;;;14.90;78.70;;;;;;5092677;28;20132;-65
2022/04/12 05:42:01;;;;;;;8.15;4.53;;;15.00;81.30;;;;;;5084769;28;20064;-64
2022/04/12 05:44:28;;;;;;;9.93;5.20;;;14.50;81.40;;;;;;5072920;28;20539;-66
2022/04/12 05:46:54;;;;;;;8.60;5.25;;;14.80;81.30;;;;;;5073729;28;20090;-64
2022/04/12 05:49:19;;;;;;;8.15;5.35;;;14.80;81.10;;;;;;5087969;28;20043;-64
2022/04/12 05:51:45;;;;;;;8.30;4.70;;;14.90;81.00;;;;;;5090790;28;20052;-64
2022/04/12 05:54:11;;;;;;;9.32;5.10;;;14.90;81.10;;;;;;5072467;28;20032;-64
2022/04/12 05:56:36;;;;;;;6.93;4.63;;;14.90;81.20;;;;;;5082668;28;20050;-64
2022/04/12 05:59:02;;;;;;;7.90;4.78;;;15.10;81.40;;;;;;5091905;28;20655;-65
2022/04/12 06:01:28;;;;;;;7.65;5.20;;;15.10;81.10;;;;;;5092563;28;20043;-69
2022/04/12 06:03:53;;;;;;;7.95;5.10;;;14.90;81.10;;;;;;5078064;28;20045;-67
2022/04/12 06:06:20;;;;;;;8.88;4.95;;;;;;;;;;5036538;28;20044;-69
2022/04/12 06:08:46;;;;;;;7.45;4.85;;;;;;;;;;5093669;28;20051;-68
2022/04/12 06:11:12;;;;;;;9.65;5.63;;;;;;;;;;5076337;28;20451;-68
2022/04/12 06:13:37;;;;;;;7.20;4.80;;;15.60;80.20;;;;;;5073675;28;20056;-66
2022/04/12 06:16:03;;;;;;;7.75;4.82;;;15.90;80.20;;;;;;5072963;28;20036;-64
2022/04/12 06:18:29;;;;;;;8.40;5.40;;;16.00;79.80;;;;;;5073231;28;20124;-64
2022/04/12 06:20:55;;;;;;;7.78;5.18;;;16.20;79.80;;;;;;5072720;28;20465;-65
2022/04/12 06:23:21;;;;;;;9.68;5.38;;;16.40;79.60;;;;;;5074474;28;20049;-63
2022/04/12 06:25:47;;;;;;;9.63;5.65;;;16.30;79.20;;;;;;5089336;28;20128;-64
2022/04/12 06:28:12;;;;;;;9.85;5.22;;;16.40;79.00;;;;;;5093215;28;20136;-64
2022/04/12 06:30:38;;;;;;;8.57;5.45;;;16.50;75.70;;;;;;5088403;28;20059;-67
2022/04/12 06:33:04;;;;;;;9.25;5.18;;;16.70;78.50;;;;;;5093120;28;20105;-63
2022/04/12 06:35:30;;;;;;;9.85;5.47;;;16.90;78.50;;;;;;5060986;28;20130;-63
2022/04/12 06:37:56;;;;;;;10.25;5.97;;;16.60;78.10;;;;;;5071351;28;20200;-63
2022/04/12 06:40:22;;;;;;;9.60;5.50;;;16.80;74.30;;;;;;5085290;28;20044;-69
2022/04/12 06:42:48;;;;;;;10.48;6.15;;;16.90;78.20;;;;;;5091965;28;20135;-66
2022/04/12 06:45:14;;;;;;;7.38;5.53;;;16.90;78.20;;;;;;5085411;28;20512;-62
2022/04/12 06:47:40;;;;;;;14.43;6.32;;;16.80;78.20;;;;;;5084973;28;20036;-63
2022/04/12 06:50:07;;;;;;;10.02;5.45;;;16.90;78.30;;;;;;5090251;28;20043;-64
2022/04/12 06:52:33;;;;;;;9.57;5.90;;;17.00;75.50;;;;;;5091744;28;20048;-66
2022/04/12 06:54:59;;;;;;;10.40;5.65;;;;;;;;;;5091156;28;20046;-69
2022/04/12 06:57:25;;;;;;;10.30;5.78;;;16.80;78.30;;;;;;5089948;28;20103;-64
2022/04/12 06:59:53;;;;;;;8.60;5.57;;;16.80;78.20;;;;;;5090033;28;20622;-64
2022/04/12 07:02:19;;;;;;;9.07;5.80;;;16.60;78.20;;;;;;5091548;28;20043;-63
2022/04/12 07:04:45;;;;;;;9.65;6.30;;;16.40;78.10;;;;;;5091952;28;20270;-65
2022/04/12 07:07:10;;;;;;;9.15;6.00;;;16.80;78.40;;;;;;5091633;28;20168;-64
2022/04/12 07:09:36;;;;;;;9.20;5.53;;;16.80;78.50;;;;;;5092851;28;20075;-63
2022/04/12 07:12:02;;;;;;;10.43;5.90;;;16.50;75.60;;;;;;5095170;28;20096;-64
2022/04/12 07:14:29;;;;;;;10.38;5.88;;;16.60;78.40;;;;;;5079352;28;20044;-64
2022/04/12 07:16:55;;;;;;;7.47;5.88;;;16.60;78.80;;;;;;5077977;28;20052;-64
2022/04/12 07:19:21;;;;;;;13.30;6.20;;;16.70;75.90;;;;;;5076044;28;20047;-65
2022/04/12 07:21:48;;;;;;;9.35;5.78;;;16.60;78.50;;;;;;5076286;28;20037;-64
2022/04/12 07:24:14;;;;;;;9.77;5.93;;;16.60;75.90;;;;;;5081106;28;20040;-63
2022/04/12 07:26:40;;;;;;;10.27;5.78;;;16.40;78.50;;;;;;5083242;28;20044;-64
2022/04/12 07:29:06;;;;;;;9.57;6.07;;;16.30;78.70;;;;;;5074965;28;20531;-64
2022/04/12 07:31:31;;;;;;;9.10;5.47;;;16.60;78.50;;;;;;5092260;28;20125;-64
2022/04/12 07:33:57;;;;;;;8.88;5.95;;;16.20;78.30;;;;;;5094845;28;20047;-64
2022/04/12 07:36:23;;;;;;;10.57;5.70;;;16.60;78.50;;;;;;5091112;28;20044;-64
2022/04/12 07:38:49;;;;;;;8.68;5.78;;;16.40;78.40;;;;;;5074836;28;20044;-71
2022/04/12 07:41:16;;;;;;;8.23;5.47;;;16.40;78.50;;;;;;5075992;28;20037;-71
2022/04/12 07:43:42;;;;;;;11.23;6.35;;;16.20;78.50;;;;;;5075978;28;20052;-70
2022/04/12 07:46:08;;;;;;;8.93;5.45;;;16.40;78.50;;;;;;5076225;28;20130;-69
2022/04/12 07:48:34;;;;;;;12.75;5.75;;;16.40;78.60;;;;;;5082336;28;20128;-70
2022/04/12 07:51:00;;;;;;;10.40;5.75;;;16.40;78.50;;;;;;5075014;28;20048;-71
2022/04/12 07:53:25;;;;;;;8.00;5.63;;;16.50;78.50;;;;;;5075749;28;20036;-70
2022/04/12 07:55:51;;;;;;;9.82;5.95;;;16.60;78.40;;;;;;5074149;28;20555;-70
2022/04/12 07:58:17;;;;;;;9.25;6.00;;;16.80;78.20;;;;;;5076836;28;20036;-70
2022/04/12 08:00:43;;;;;;;9.43;6.03;;;;;;;;;;5075627;28;20045;-68
2022/04/12 08:03:12;;;;;;;9.90;5.30;;;17.00;77.90;;;;;;5075559;28;20032;-68
2022/04/12 08:05:38;;;;;;;11.57;5.95;;;17.30;77.70;;;;;;5092414;28;20047;-69
2022/04/12 08:08:05;;;;;;;11.40;6.25;;;17.50;77.70;;;;;;5086234;28;20044;-64
2022/04/12 08:10:31;;;;;;;8.68;5.75;;;17.40;77.40;;;;;;5074974;28;20498;-63
2022/04/12 08:12:57;;;;;;;9.32;6.53;;;17.70;74.70;;;;;;5075077;28;20559;-64
2022/04/12 08:15:23;;;;;;;8.68;5.82;;;17.50;77.20;;;;;;5073777;28;20544;-64
2022/04/12 08:17:49;;;;;;;9.38;5.80;;;18.00;77.20;;;;;;5075106;28;20051;-63
2022/04/12 08:20:15;;;;;;;11.93;5.70;;;17.60;73.90;;;;;;5075462;28;20049;-62
2022/04/12 08:22:41;;;;;;;9.93;6.45;;;17.90;76.90;;;;;;5091053;28;20044;-68
2022/04/12 08:25:08;;;;;;;8.70;6.38;;;17.80;73.80;;;;;;5095470;28;20052;-64
2022/04/12 08:27:33;;;;;;;9.05;5.82;;;17.90;76.60;;;;;;5060635;28;20047;-63
2022/04/12 08:29:59;;;;;;;10.05;6.32;;;18.10;76.40;;;;;;5061713;28;20222;-63
2022/04/12 08:32:25;;;;;;;9.65;5.93;;;18.30;73.50;;;;;;5073697;28;20048;-64
2022/04/12 08:34:51;;;;;;;8.93;6.07;;;18.30;76.30;;;;;;5074852;28;20037;-63
2022/04/12 08:37:17;;;;;;;12.40;6.38;;;18.40;76.30;;;;;;5073746;28;20044;-65
2022/04/12 08:39:43;;;;;;;9.73;6.70;;;18.60;76.10;;;;;;5058957;28;20374;-63
2022/04/12 08:42:08;;;;;;;10.88;6.90;;;18.40;75.90;;;;;;5074471;28;20105;-63
2022/04/12 08:44:36;;;;;;;9.57;5.82;;;18.40;75.90;;;;;;5075039;28;20037;-63
2022/04/12 08:47:04;;;;;;;11.40;6.88;;;18.60;75.90;;;;;;5093428;28;20047;-64
2022/04/12 08:49:30;;;;;;;10.43;6.93;;;;;;;;;;5093153;28;20072;-64
2022/04/12 08:51:55;;;;;;;12.25;7.05;;;18.70;74.40;;;;;;5074641;28;20105;-63
2022/04/12 08:54:21;;;;;;;11.13;7.10;;;18.60;75.60;;;;;;5074553;28;20041;-63
2022/04/12 08:56:51;;;;;;;11.55;6.90;;;18.70;75.50;;;;;;5091661;28;20048;-63
2022/04/12 08:59:18;;;;;;;10.50;6.65;;;18.50;71.80;;;;;;5093536;28;20048;-64
2022/04/12 09:01:44;;;;;;;12.35;7.00;;;18.50;75.40;;;;;;5048085;28;20083;-63
2022/04/12 09:04:10;;;;;;;9.80;6.80;;;18.30;75.20;;;;;;5056442;28;20044;-64
2022/04/12 09:06:50;;;;;;;12.20;6.80;;;18.80;75.50;;;;;;5072828;28;20044;-64
2022/04/12 09:09:18;;;;;;;10.10;6.80;;;18.80;75.50;;;;;;5046306;28;20375;-63
2022/04/12 09:11:54;;;;;;;11.52;7.15;;;18.80;75.40;;;;;;5085031;28;20052;-64
2022/04/12 09:14:20;;;;;;;18.20;8.05;;;18.90;75.50;;;;;;5072507;28;20044;-63
2022/04/12 09:16:46;;;;;;;13.88;7.45;;;19.10;75.10;;;;;;5055975;28;20105;-63
2022/04/12 09:19:12;;;;;;;14.27;7.63;;;18.80;75.00;;;;;;5075651;28;20105;-62
2022/04/12 09:21:46;;;;;;;12.40;7.70;;;18.80;75.30;;;;;;5093907;28;20050;-64
2022/04/12 09:24:19;;;;;;;14.70;7.50;;;18.70;72.40;;;;;;5079993;28;20040;-63
2022/04/12 09:26:55;;;;;;;17.75;7.95;;;18.70;72.40;;;;;;5075024;28;20055;-62
2022/04/12 09:29:26;;;;;;;17.77;7.97;;;18.60;75.10;;;;;;5084179;28;20375;-63
2022/04/12 09:31:58;;;;;;;20.50;8.43;;;18.70;75.20;;;;;;5090488;28;20555;-62
2022/04/12 09:34:24;;;;;;;13.95;8.30;;;18.70;75.20;;;;;;5061680;28;20048;-62
2022/04/12 09:36:50;;;;;;;13.55;8.02;;;18.80;75.30;;;;;;5073410;28;20482;-63
2022/04/12 09:39:18;;;;;;;14.50;7.75;;;18.70;75.20;;;;;;5062566;28;20052;-62
2022/04/12 09:41:43;;;;;;;13.77;7.60;;;18.80;75.40;;;;;;5076631;28;20429;-69
2022/04/12 09:44:12;;;;;;;16.65;8.80;;;;;;;;;;5055290;28;20037;-68
2022/04/12 09:46:38;;;;;;;15.85;8.52;;;18.80;75.40;;;;;;5079265;28;20044;-68
2022/04/12 09:49:05;;;;;;;17.98;8.57;;;18.90;75.40;;;;;;5075057;28;20456;-70
2022/04/12 09:51:32;;;;;;;18.77;8.00;;;18.60;72.50;;;;;;5074079;28;20452;-70
2022/04/12 09:53:58;;;;;;;12.18;8.13;;;;;;;;;;5073578;28;20405;-70
2022/04/12 09:56:25;;;;;;;13.43;8.50;;;18.80;75.60;;;;;;5073637;28;20416;-70
2022/04/12 09:58:52;;;;;;;13.70;8.50;;;18.70;75.50;;;;;;5083287;28;20531;-62
2022/04/12 10:01:19;;;;;;;15.98;9.00;;;18.60;75.50;;;;;;5092238;28;20102;-63
2022/04/12 10:03:49;;;;;;;15.00;8.50;;;18.70;75.50;;;;;;5083289;28;20423;-63
2022/04/12 10:06:18;;;;;;;11.50;7.97;;;18.70;72.50;;;;;;5073515;28;20394;-70
2022/04/12 10:08:44;;;;;;;12.18;8.30;;;18.60;75.60;;;;;;5071940;28;20088;-70
2022/04/12 10:11:14;;;;;;;12.32;8.30;;;18.40;72.80;;;;;;5038536;28;20084;-70
2022/04/12 10:13:40;;;;;;;14.07;8.93;;;18.60;75.60;;;;;;5073118;28;20563;-70
2022/04/12 10:16:07;;;;;;;13.35;8.43;;;18.80;75.70;;;;;;5072130;28;20454;-70
2022/04/12 10:18:33;;;;;;;12.05;8.18;;;18.30;75.50;;;;;;5073344;28;20106;-70
2022/04/12 10:20:59;;;;;;;12.57;8.38;;;18.70;73.10;;;;;;5073646;28;20056;-70
2022/04/12 10:23:26;;;;;;;13.80;8.32;;;18.70;75.90;;;;;;5073066;28;20083;-70
2022/04/12 10:25:52;;;;;;;12.75;8.68;;;18.70;76.20;;;;;;5055266;28;20083;-70
2022/04/12 10:28:19;;;;;;;13.65;9.55;;;18.50;73.10;;;;;;5073345;28;20099;-69
2022/04/12 10:30:44;;;;;;;13.50;8.90;;;18.50;75.90;;;;;;5055464;28;20402;-70
2022/04/12 10:33:24;;;;;;;12.80;8.55;;;18.90;71.50;;;;;;5071779;28;20049;-69
2022/04/12 10:35:51;;;;;;;12.57;7.95;;;18.40;75.80;;;;;;5072872;28;20044;-71
2022/04/12 10:38:18;;;;;;;21.95;9.30;;;18.60;73.10;;;;;;5080093;28;20056;-69
2022/04/12 10:40:45;;;;;;;15.55;8.88;;;18.80;76.10;;;;;;5093383;28;20062;-69
2022/04/12 10:43:11;;;;;;;12.48;8.50;;;18.90;76.20;;;;;;5091787;28;20146;-68
2022/04/12 10:45:49;;;;;;;14.13;8.40;;;18.70;76.00;;;;;;5093428;28;20044;-69
2022/04/12 10:48:22;;;;;;;12.68;8.20;;;18.90;76.10;;;;;;5059081;28;20047;-63
2022/04/12 10:50:53;;;;;;;10.82;7.55;;;18.80;76.00;;;;;;5095609;28;20040;-68
2022/04/12 10:53:39;;;;;;;11.70;7.85;;;18.70;73.20;;;;;;5097148;28;20436;-69
2022/04/12 10:56:07;;;;;;;11.20;8.15;;;18.90;76.00;;;;;;5076185;28;20105;-68
2022/04/12 10:58:33;;;;;;;13.10;8.02;;;;;;;;;;5076991;28;20052;-68
2022/04/12 11:00:59;;;;;;;13.38;8.75;;;18.90;76.10;;;;;;5075364;28;20056;-68
2022/04/12 11:03:40;;;;;;;14.57;9.18;;;18.90;76.40;;;;;;5076740;28;20052;-66
2022/04/12 11:06:25;;;;;;;12.70;8.18;;;19.10;76.40;;;;;;5076606;28;20041;-68
2022/04/12 11:08:55;;;;;;;12.95;8.52;;;18.90;73.50;;;;;;5062854;28;20156;-65
2022/04/12 11:11:29;;;;;;;14.80;9.88;;;18.70;76.20;;;;;;5087910;28;20065;-64
2022/04/12 11:13:55;;;;;;;12.50;8.15;;;18.90;73.70;;;;;;5076540;28;20055;-65
2022/04/12 11:16:25;;;;;;;12.65;8.63;;;18.80;75.50;;;;;;5060675;28;20102;-63
2022/04/12 11:18:51;;;;;;;12.95;8.98;;;18.90;76.50;;;;;;5093884;28;20448;-62
2022/04/12 11:21:21;;;;;;;12.30;8.25;;;18.90;76.40;;;;;;5095762;28;20043;-63
2022/04/12 11:24:08;;;;;;;11.98;8.50;;;18.80;76.60;;;;;;5096521;28;20123;-63
2022/04/12 11:26:38;;;;;;;13.30;8.68;;;19.20;73.50;;;;;;5095420;28;20417;-65
2022/04/12 11:29:15;;;;;;;12.75;8.63;;;19.20;74.00;;;;;;5079987;28;20110;-64
2022/04/12 11:31:42;;;;;;;14.07;8.30;;;19.20;76.50;;;;;;5076326;28;20041;-63
2022/04/12 11:34:07;;;;;;;12.15;8.65;;;19.00;73.90;;;;;;5076191;28;20054;-63
2022/04/12 11:36:34;;;;;;;14.38;9.07;;;18.90;76.30;;;;;;5076085;28;20115;-63
2022/04/12 11:38:59;;;;;;;14.15;9.15;;;19.20;76.70;;;;;;5087017;28;20101;-65
2022/04/12 11:41:28;;;;;;;13.15;8.68;;;19.20;73.70;;;;;;5096233;28;20044;-63
2022/04/12 11:44:04;;;;;;;15.27;9.48;;;19.10;76.40;;;;;;5096175;28;20063;-64
2022/04/12 11:46:32;;;;;;;14.27;9.48;;;19.30;76.50;;;;;;5078154;28;20056;-66
2022/04/12 11:49:11;;;;;;;14.98;10.32;;;19.20;76.50;;;;;;5081024;28;20032;-64
2022/04/12 11:51:58;;;;;;;14.73;9.48;;;19.30;76.60;;;;;;5096298;28;20048;-64
2022/04/12 11:54:31;;;;;;;12.50;9.20;;;19.40;74.00;;;;;;5078449;28;20052;-65
2022/04/12 11:57:02;;;;;;;16.08;9.75;;;19.50;72.00;;;;;;5073919;28;20053;-67
2022/04/12 11:59:29;;;;;;;17.33;10.45;;;19.30;76.70;;;;;;5078149;28;20048;-68
2022/04/12 12:01:59;;;;;;;15.20;9.73;;;19.30;76.70;;;;;;5073977;28;20513;-68
2022/04/12 12:04:29;;;;;;;16.40;9.90;;;19.00;75.90;;;;;;5057932;28;20049;-67
2022/04/12 12:07:01;;;;;;;14.48;8.90;;;19.40;74.40;;;;;;5057642;28;20044;-69
2022/04/12 12:09:27;;;;;;;14.18;9.52;;;19.30;77.00;;;;;;5075630;28;20063;-69
2022/04/12 12:12:06;;;;;;;18.80;10.15;;;19.60;74.30;;;;;;5075417;28;20045;-69
2022/04/12 12:14:32;;;;;;;14.10;9.23;;;19.40;76.90;;;;;;5057186;28;20143;-68
2022/04/12 12:17:09;;;;;;;18.45;9.68;;;19.30;76.70;;;;;;5075405;28;20135;-64
2022/04/12 12:19:39;;;;;;;13.55;9.25;;;19.50;77.00;;;;;;5074047;28;20052;-65
2022/04/12 12:22:09;;;;;;;14.63;9.80;;;19.50;77.00;;;;;;5073819;28;20051;-65
2022/04/12 12:24:51;;;;;;;14.10;8.60;;;19.60;77.10;;;;;;5077878;28;20048;-65
2022/04/12 12:27:27;;;;;;;15.75;8.90;;;19.40;77.10;;;;;;5094274;28;20043;-64
2022/04/12 12:29:52;;;;;;;15.63;8.75;;;19.50;74.40;;;;;;5076846;28;20489;-63
2022/04/12 12:32:18;;;;;;;16.98;9.32;;;19.40;74.00;;;;;;5093942;28;20036;-63
2022/04/12 12:34:44;;;;;;;13.02;8.30;;;19.50;77.10;;;;;;5076873;28;20040;-63
2022/04/12 12:37:11;;;;;;;12.50;8.40;;;19.50;74.40;;;;;;5079932;28;20091;-63
2022/04/12 12:39:38;;;;;;;11.38;8.23;;;19.40;77.00;;;;;;5073703;28;20451;-63
2022/04/12 12:42:04;;;;;;;12.30;7.45;;;19.40;74.50;;;;;;5074848;28;20123;-64
2022/04/12 12:44:34;;;;;;;14.23;8.25;;;19.60;77.10;;;;;;5073207;28;20127;-63
2022/04/12 12:47:02;;;;;;;13.30;8.35;;;19.80;77.30;;;;;;5073431;28;20094;-64
2022/04/12 12:49:38;;;;;;;14.02;8.70;;;19.60;77.10;;;;;;5074315;28;20059;-65
2022/04/12 12:52:09;;;;;;;13.25;8.55;;;19.80;77.20;;;;;;5074561;28;20126;-65
2022/04/12 12:54:35;;;;;;;14.18;8.93;;;19.60;77.20;;;;;;5093383;28;20486;-65